createdAt,value
2018-07-25T00:00:46.559Z,98.90
2018-07-25T00:03:15.897Z,98.90
2018-07-25T00:08:14.203Z,99.40
2018-07-25T00:10:49.439Z,99.10
2018-07-25T00:13:18.820Z,99.00
2018-07-25T00:15:48.217Z,98.80
2018-07-25T00:18:17.540Z,99.00
2018-07-25T00:20:46.906Z,98.90
2018-07-25T00:23:16.204Z,99.20
2018-07-25T00:25:45.589Z,99.40
2018-07-25T00:28:14.959Z,99.50
2018-07-25T00:30:44.323Z,99.70
2018-07-25T00:33:13.676Z,99.70
2018-07-25T00:35:43.121Z,99.70
2018-07-25T00:38:12.456Z,99.90
2018-07-25T00:40:41.845Z,99.90
2018-07-25T00:43:11.188Z,99.90
2018-07-25T00:48:09.585Z,99.90
2018-07-25T00:50:38.992Z,99.70
2018-07-25T00:53:08.358Z,99.60
2018-07-25T00:55:37.761Z,99.60
2018-07-25T00:58:07.090Z,99.80
2018-07-25T01:03:05.400Z,99.70
2018-07-25T01:05:34.780Z,99.90
2018-07-25T01:08:04.184Z,99.90
2018-07-25T01:13:02.520Z,99.90
2018-07-25T01:15:31.900Z,99.90
2018-07-25T01:18:01.220Z,99.90
2018-07-25T01:20:30.584Z,99.90
2018-07-25T01:27:57.769Z,99.90
2018-07-25T01:32:56.388Z,99.90
2018-07-25T01:35:25.992Z,99.90
2018-07-25T01:37:55.676Z,99.90
2018-07-25T01:42:53.888Z,99.90
2018-07-25T01:45:23.252Z,99.90
2018-07-25T01:47:52.604Z,99.90
2018-07-25T01:50:21.915Z,99.90
2018-07-25T01:52:51.231Z,99.90
2018-07-25T01:55:20.751Z,99.90
2018-07-25T01:57:50.095Z,99.90
2018-07-25T02:00:19.463Z,99.90
2018-07-25T02:02:48.791Z,99.90
2018-07-25T02:05:18.199Z,99.90
2018-07-25T02:10:16.421Z,99.90
2018-07-25T02:12:45.792Z,99.90
2018-07-25T02:15:15.143Z,99.90
2018-07-25T02:17:44.507Z,99.90
2018-07-25T02:20:13.822Z,99.90
2018-07-25T02:22:49.595Z,99.90
2018-07-25T02:25:18.903Z,99.90
2018-07-25T02:27:48.243Z,99.90
2018-07-25T02:30:17.535Z,99.90
2018-07-25T02:32:46.893Z,99.90
2018-07-25T02:35:16.210Z,99.90
2018-07-25T02:37:45.544Z,99.90
2018-07-25T02:40:14.904Z,99.90
2018-07-25T02:42:44.227Z,99.90
2018-07-25T02:45:13.571Z,99.90
2018-07-25T02:47:42.951Z,99.90
2018-07-25T02:50:12.242Z,99.90
2018-07-25T02:52:41.567Z,99.90
2018-07-25T02:55:10.864Z,99.90
2018-07-25T02:57:40.208Z,99.90
2018-07-25T03:00:09.544Z,99.90
2018-07-25T03:02:38.888Z,99.90
2018-07-25T03:05:08.197Z,99.90
2018-07-25T03:07:37.524Z,99.90
2018-07-25T03:10:07.068Z,99.90
2018-07-25T03:12:36.420Z,99.90
2018-07-25T03:15:06.325Z,99.90
2018-07-25T03:17:35.717Z,99.90
2018-07-25T03:20:05.209Z,99.90
2018-07-25T03:22:34.544Z,99.90
2018-07-25T03:25:03.980Z,99.90
2018-07-25T03:27:33.289Z,99.90
2018-07-25T03:32:31.497Z,99.90
2018-07-25T03:35:00.911Z,99.90
2018-07-25T03:37:30.263Z,99.90
2018-07-25T03:39:59.548Z,99.90
2018-07-25T03:42:28.849Z,99.90
2018-07-25T03:44:58.187Z,99.90
2018-07-25T03:47:27.482Z,99.90
2018-07-25T03:49:56.818Z,99.90
2018-07-25T03:52:26.140Z,99.90
2018-07-25T03:54:55.496Z,99.90
2018-07-25T03:57:24.808Z,99.90
2018-07-25T03:59:54.209Z,99.90
2018-07-25T04:02:23.564Z,99.90
2018-07-25T04:04:52.904Z,99.90
2018-07-25T04:07:22.219Z,99.90
2018-07-25T04:09:51.563Z,99.90
2018-07-25T04:12:20.876Z,99.90
2018-07-25T04:14:50.253Z,99.90
2018-07-25T04:17:19.560Z,99.90
2018-07-25T04:19:48.931Z,99.90
2018-07-25T04:22:18.264Z,99.90
2018-07-25T04:24:47.693Z,99.90
2018-07-25T04:27:17.004Z,99.90
2018-07-25T04:29:46.295Z,99.90
2018-07-25T04:32:15.665Z,99.90
2018-07-25T04:34:45.001Z,99.90
2018-07-25T04:37:14.332Z,99.90
2018-07-25T04:42:12.497Z,99.90
2018-07-25T04:44:41.842Z,99.90
2018-07-25T04:47:11.475Z,99.90
2018-07-25T04:49:40.821Z,99.90
2018-07-25T04:52:10.192Z,99.90
2018-07-25T04:54:39.584Z,99.90
2018-07-25T04:57:09.079Z,99.90
2018-07-25T04:59:38.475Z,99.90
2018-07-25T05:02:07.888Z,99.90
2018-07-25T05:04:37.307Z,99.90
2018-07-25T05:07:06.710Z,99.90
2018-07-25T05:09:35.965Z,99.90
2018-07-25T05:12:05.532Z,99.90
2018-07-25T05:14:34.861Z,99.90
2018-07-25T05:17:04.272Z,99.90
2018-07-25T05:19:33.641Z,99.90
2018-07-25T05:22:02.992Z,99.90
2018-07-25T05:24:32.298Z,99.90
2018-07-25T05:27:01.672Z,99.90
2018-07-25T05:29:31.001Z,99.90
2018-07-25T05:32:00.368Z,99.90
2018-07-25T05:34:29.707Z,99.90
2018-07-25T05:36:59.072Z,99.90
2018-07-25T05:41:57.287Z,99.90
2018-07-25T05:44:26.700Z,99.90
2018-07-25T05:46:56.072Z,99.90
2018-07-25T05:51:54.289Z,99.90
2018-07-25T05:54:23.580Z,99.90
2018-07-25T05:56:52.964Z,99.90
2018-07-25T05:59:22.328Z,99.90
2018-07-25T06:01:51.684Z,99.90
2018-07-25T06:04:20.999Z,99.90
2018-07-25T06:06:50.366Z,99.90
2018-07-25T06:09:19.680Z,99.90
2018-07-25T06:11:49.038Z,99.90
2018-07-25T06:14:18.404Z,99.90
2018-07-25T06:16:47.711Z,99.90
2018-07-25T06:19:17.056Z,99.90
2018-07-25T06:21:46.388Z,99.90
2018-07-25T06:24:15.717Z,99.90
2018-07-25T06:26:45.088Z,99.90
2018-07-25T06:29:14.395Z,99.90
2018-07-25T06:31:43.788Z,99.90
2018-07-25T06:36:42.058Z,99.80
2018-07-25T06:39:12.896Z,99.90
2018-07-25T06:41:42.263Z,99.90
2018-07-25T06:44:11.623Z,99.90
2018-07-25T06:46:41.013Z,99.90
2018-07-25T06:49:10.318Z,99.90
2018-07-25T06:51:39.681Z,99.90
2018-07-25T06:54:09.000Z,99.90
2018-07-25T06:56:38.358Z,99.90
2018-07-25T06:59:07.768Z,99.90
2018-07-25T07:01:37.131Z,99.90
2018-07-25T07:06:35.443Z,99.90
2018-07-25T07:09:07.080Z,99.90
2018-07-25T07:11:36.599Z,99.90
2018-07-25T07:14:06.324Z,99.90
2018-07-25T07:16:35.820Z,99.90
2018-07-25T07:19:05.316Z,99.90
2018-07-25T07:21:34.875Z,99.50
2018-07-25T07:24:04.592Z,99.20
2018-07-25T07:26:34.024Z,98.80
2018-07-25T07:31:32.455Z,97.90
2018-07-25T07:34:01.818Z,97.80
2018-07-25T07:36:31.148Z,97.70
2018-07-25T07:39:00.560Z,97.40
2018-07-25T07:41:29.908Z,97.30
2018-07-25T07:43:59.467Z,97.00
2018-07-25T07:46:28.956Z,96.70
2018-07-25T07:48:58.324Z,97.20
2018-07-25T07:51:27.647Z,97.80
2018-07-25T07:53:57.135Z,97.30
2018-07-25T07:56:26.622Z,96.90
2018-07-25T07:58:57.207Z,96.80
2018-07-25T08:01:26.588Z,97.40
2018-07-25T08:06:24.823Z,97.40
2018-07-25T08:08:54.321Z,97.10
2018-07-25T08:11:23.845Z,96.60
2018-07-25T08:13:53.308Z,96.30
2018-07-25T08:16:22.655Z,96.20
2018-07-25T08:18:52.036Z,96.50
2018-07-25T08:21:21.357Z,96.70
2018-07-25T08:23:50.787Z,96.00
2018-07-25T08:26:20.147Z,96.20
2018-07-25T08:28:49.559Z,96.30
2018-07-25T08:31:19.071Z,95.50
2018-07-25T08:33:48.569Z,95.70
2018-07-25T08:36:18.195Z,95.90
2018-07-25T08:38:47.707Z,95.90
2018-07-25T08:41:17.121Z,95.90
2018-07-25T08:43:46.469Z,95.40
2018-07-25T08:46:15.851Z,95.30
2018-07-25T08:48:45.221Z,95.30
2018-07-25T08:51:14.571Z,95.10
2018-07-25T08:53:44.168Z,94.70
2018-07-25T08:56:13.719Z,94.70
2018-07-25T08:58:43.316Z,94.10
2018-07-25T09:01:12.704Z,94.50
2018-07-25T09:03:42.240Z,93.60
2018-07-25T09:06:11.588Z,93.30
2018-07-25T09:08:40.897Z,93.00
2018-07-25T09:11:10.288Z,92.10
2018-07-25T09:13:40.729Z,91.80
2018-07-25T09:16:10.230Z,91.10
2018-07-25T09:18:39.681Z,91.40
2018-07-25T09:21:08.997Z,90.70
2018-07-25T09:23:39.274Z,90.70
2018-07-25T09:26:08.743Z,90.80
2018-07-25T09:28:38.091Z,90.10
2018-07-25T09:31:07.411Z,90.00
2018-07-25T09:33:36.822Z,88.20
2018-07-25T09:38:35.884Z,86.80
2018-07-25T09:41:05.610Z,86.70
2018-07-25T09:43:35.049Z,85.40
2018-07-25T09:48:33.399Z,83.90
2018-07-25T09:51:02.779Z,81.20
2018-07-25T09:53:32.100Z,76.90
2018-07-25T09:56:01.417Z,75.60
2018-07-25T09:58:30.739Z,73.00
2018-07-25T10:01:00.122Z,73.00
2018-07-25T10:03:29.408Z,69.30
2018-07-25T10:05:58.768Z,73.80
2018-07-25T10:11:03.525Z,73.00
2018-07-25T10:13:32.868Z,71.20
2018-07-25T10:16:02.208Z,68.70
2018-07-25T10:18:31.563Z,67.10
2018-07-25T10:21:00.911Z,65.90
2018-07-25T10:25:59.131Z,69.20
2018-07-25T10:28:28.474Z,60.70
2018-07-25T10:30:57.816Z,63.90
2018-07-25T10:35:56.133Z,61.90
2018-07-25T10:38:25.468Z,62.50
2018-07-25T10:40:54.844Z,59.10
2018-07-25T10:43:24.196Z,57.00
2018-07-25T10:45:53.616Z,56.80
2018-07-25T10:48:22.863Z,56.70
2018-07-25T10:50:52.208Z,55.60
2018-07-25T10:53:22.683Z,56.70
2018-07-25T10:55:52.082Z,56.00
2018-07-25T10:58:21.334Z,57.70
2018-07-25T11:03:19.666Z,53.60
2018-07-25T11:05:49.267Z,53.50
2018-07-25T11:08:18.572Z,53.30
2018-07-25T11:10:47.904Z,52.10
2018-07-25T11:13:17.303Z,52.30
2018-07-25T11:15:46.787Z,51.50
2018-07-25T11:18:16.350Z,53.30
2018-07-25T11:23:14.512Z,52.50
2018-07-25T11:25:43.861Z,56.30
2018-07-25T11:30:41.970Z,58.00
2018-07-25T11:33:11.271Z,57.90
2018-07-25T11:35:40.564Z,57.50
2018-07-25T11:38:09.947Z,57.00
2018-07-25T11:40:39.200Z,52.60
2018-07-25T11:45:43.945Z,59.20
2018-07-25T11:48:13.261Z,62.40
2018-07-25T11:50:42.660Z,63.20
2018-07-25T11:53:11.995Z,63.50
2018-07-25T11:55:41.459Z,61.20
2018-07-25T11:58:10.755Z,58.40
2018-07-25T12:00:40.094Z,53.40
2018-07-25T12:03:09.509Z,50.50
2018-07-25T12:08:07.811Z,47.60
2018-07-25T12:10:37.139Z,47.90
2018-07-25T12:13:06.803Z,46.40
2018-07-25T12:15:36.162Z,47.30
2018-07-25T12:18:05.804Z,46.20
2018-07-25T12:23:04.090Z,46.90
2018-07-25T12:25:33.444Z,45.70
2018-07-25T12:28:02.846Z,44.50
2018-07-25T12:30:32.182Z,46.40
2018-07-25T12:33:01.618Z,44.40
2018-07-25T12:37:59.890Z,43.20
2018-07-25T12:40:29.225Z,43.70
2018-07-25T12:42:58.699Z,42.90
2018-07-25T12:45:28.203Z,43.70
2018-07-25T12:47:57.836Z,42.40
2018-07-25T12:50:27.396Z,40.40
2018-07-25T12:52:57.348Z,41.70
2018-07-25T12:57:56.019Z,40.50
2018-07-25T13:00:25.584Z,43.20
2018-07-25T13:02:55.249Z,42.70
2018-07-25T13:05:24.748Z,40.80
2018-07-25T13:07:54.187Z,41.90
2018-07-25T13:10:23.758Z,40.70
2018-07-25T13:12:53.104Z,39.80
2018-07-25T13:15:22.620Z,40.30
2018-07-25T13:17:51.972Z,41.50
2018-07-25T13:20:21.350Z,40.50
2018-07-25T13:22:52.315Z,40.50
2018-07-25T13:25:21.917Z,40.90
2018-07-25T13:27:51.455Z,41.60
2018-07-25T13:30:21.006Z,41.00
2018-07-25T13:32:50.372Z,38.80
2018-07-25T13:35:21.137Z,39.90
2018-07-25T13:37:50.697Z,39.60
2018-07-25T13:42:49.054Z,39.10
2018-07-25T13:45:18.423Z,39.00
2018-07-25T13:50:17.220Z,40.70
2018-07-25T13:52:46.792Z,40.10
2018-07-25T13:55:16.522Z,38.70
2018-07-25T13:57:46.012Z,39.80
2018-07-25T14:05:14.330Z,38.10
2018-07-25T14:07:43.561Z,38.00
2018-07-25T14:10:12.944Z,37.90
2018-07-25T14:12:42.267Z,39.00
2018-07-25T14:15:11.632Z,38.00
2018-07-25T14:20:09.843Z,42.80
2018-07-25T14:22:39.150Z,42.80
2018-07-25T14:25:08.492Z,45.20
2018-07-25T14:27:37.810Z,46.80
2018-07-25T14:30:07.233Z,46.30
2018-07-25T14:32:36.544Z,49.70
2018-07-25T14:35:05.885Z,49.00
2018-07-25T14:37:35.199Z,50.30
2018-07-25T14:40:04.989Z,51.20
2018-07-25T14:42:34.264Z,51.40
2018-07-25T14:45:03.668Z,51.80
2018-07-25T14:47:33.120Z,49.20
2018-07-25T14:50:02.472Z,46.10
2018-07-25T14:52:31.805Z,44.40
2018-07-25T14:55:01.145Z,40.70
2018-07-25T14:57:30.459Z,39.00
2018-07-25T15:02:28.736Z,37.10
2018-07-25T15:07:26.852Z,41.80
2018-07-25T15:09:56.206Z,40.20
2018-07-25T15:12:30.991Z,38.60
2018-07-25T15:15:00.265Z,39.20
2018-07-25T15:17:29.642Z,40.50
2018-07-25T15:19:59.024Z,39.70
2018-07-25T15:22:28.382Z,39.10
2018-07-25T15:24:57.705Z,40.90
2018-07-25T15:27:27.043Z,39.00
2018-07-25T15:29:56.428Z,40.30
2018-07-25T15:32:25.800Z,41.70
2018-07-25T15:34:55.171Z,41.20
2018-07-25T15:37:24.551Z,40.10
2018-07-25T15:39:53.932Z,41.70
2018-07-25T15:42:23.300Z,43.90
2018-07-25T15:44:52.631Z,42.80
2018-07-25T15:47:22.073Z,43.30
2018-07-25T15:49:51.341Z,43.20
2018-07-25T15:52:20.720Z,43.10
2018-07-25T15:54:50.069Z,42.20
2018-07-25T15:57:19.427Z,42.70
2018-07-25T15:59:49.033Z,43.00
2018-07-25T16:04:47.260Z,42.90
2018-07-25T16:07:16.609Z,42.00
2018-07-25T16:09:45.954Z,42.00
2018-07-25T16:12:15.308Z,42.20
2018-07-25T16:17:13.537Z,40.40
2018-07-25T16:19:42.869Z,39.60
2018-07-25T16:22:12.268Z,38.10
2018-07-25T16:24:41.598Z,38.50
2018-07-25T16:29:39.808Z,38.80
2018-07-25T16:32:09.242Z,40.20
2018-07-25T16:34:38.748Z,40.30
2018-07-25T16:37:08.450Z,38.40
2018-07-25T16:39:39.020Z,38.50
2018-07-25T16:42:08.645Z,38.60
2018-07-25T16:44:38.284Z,37.80
2018-07-25T16:47:07.888Z,36.90
2018-07-25T16:49:37.326Z,37.30
2018-07-25T16:52:06.809Z,37.70
2018-07-25T16:54:36.099Z,36.40
2018-07-25T16:57:05.593Z,36.20
2018-07-25T16:59:34.934Z,36.60
2018-07-25T17:02:04.350Z,37.00
2018-07-25T17:04:33.679Z,37.70
2018-07-25T17:07:03.037Z,37.70
2018-07-25T17:09:32.357Z,38.20
2018-07-25T17:12:01.717Z,38.50
2018-07-25T17:14:31.044Z,37.60
2018-07-25T17:17:00.388Z,38.60
2018-07-25T17:21:58.605Z,39.80
2018-07-25T17:24:27.937Z,39.90
2018-07-25T17:26:57.383Z,39.60
2018-07-25T17:31:55.620Z,40.80
2018-07-25T17:34:24.945Z,41.40
2018-07-25T17:36:54.321Z,43.00
2018-07-25T17:39:23.669Z,45.50
2018-07-25T17:41:52.997Z,45.80
2018-07-25T17:44:22.414Z,47.80
2018-07-25T17:46:51.801Z,48.00
2018-07-25T17:49:21.154Z,50.20
2018-07-25T17:51:50.488Z,51.30
2018-07-25T17:59:17.587Z,53.90
2018-07-25T18:01:47.080Z,54.80
2018-07-25T18:06:45.746Z,55.70
2018-07-25T18:09:15.098Z,56.20
2018-07-25T18:11:44.457Z,57.00
2018-07-25T18:14:15.870Z,57.70
2018-07-25T18:16:45.740Z,58.00
2018-07-25T18:21:44.932Z,61.00
2018-07-25T18:24:14.331Z,61.90
2018-07-25T18:26:43.670Z,62.50
2018-07-25T18:34:10.826Z,65.10
2018-07-25T18:36:40.177Z,65.60
2018-07-25T18:39:11.113Z,66.10
2018-07-25T18:41:41.032Z,66.40
2018-07-25T18:44:10.653Z,67.10
2018-07-25T18:46:40.064Z,67.50
2018-07-25T18:49:09.443Z,68.50
2018-07-25T18:51:38.786Z,69.50
2018-07-25T18:54:08.211Z,69.90
2018-07-25T18:56:37.671Z,70.50
2018-07-25T18:59:07.056Z,70.70
2018-07-25T19:01:36.418Z,71.20
2018-07-25T19:04:05.915Z,72.20
2018-07-25T19:06:35.259Z,72.70
2018-07-25T19:11:35.297Z,73.40
2018-07-25T19:16:38.742Z,74.40
2018-07-25T19:19:08.060Z,74.60
2018-07-25T19:21:37.356Z,75.30
2018-07-25T19:24:06.721Z,75.70
2018-07-25T19:26:36.021Z,75.70
2018-07-25T19:29:05.811Z,75.60
2018-07-25T19:31:35.148Z,76.50
2018-07-25T19:34:04.533Z,77.30
2018-07-25T19:36:33.824Z,77.90
2018-07-25T19:39:03.220Z,78.20
2018-07-25T19:41:32.504Z,78.10
2018-07-25T19:44:01.812Z,79.20
2018-07-25T19:46:31.136Z,78.90
2018-07-25T19:51:29.291Z,80.00
2018-07-25T19:53:58.568Z,79.70
2018-07-25T19:56:27.912Z,80.40
2018-07-25T19:58:57.230Z,80.70
2018-07-25T20:01:26.709Z,81.90
2018-07-25T20:03:55.987Z,82.40
2018-07-25T20:06:25.309Z,83.00
2018-07-25T20:08:54.592Z,83.30
2018-07-25T20:11:23.921Z,83.20
2018-07-25T20:13:58.432Z,84.50
2018-07-25T20:18:56.616Z,84.00
2018-07-25T20:21:26.298Z,83.70
2018-07-25T20:23:55.944Z,84.40
2018-07-25T20:26:25.438Z,85.30
2018-07-25T20:28:54.744Z,85.90
2018-07-25T20:31:24.068Z,86.00
2018-07-25T20:33:53.553Z,86.10
2018-07-25T20:38:52.243Z,86.40
2018-07-25T20:41:21.904Z,87.10
2018-07-25T20:43:51.576Z,87.10
2018-07-25T20:48:50.196Z,88.20
2018-07-25T20:51:19.545Z,88.00
2018-07-25T20:53:48.848Z,87.70
2018-07-25T20:56:18.219Z,88.40
2018-07-25T20:58:47.552Z,88.70
2018-07-25T21:01:17.054Z,88.70
2018-07-25T21:03:46.504Z,88.70
2018-07-25T21:08:44.811Z,88.70
2018-07-25T21:11:14.200Z,89.00
2018-07-25T21:13:43.543Z,89.10
2018-07-25T21:16:12.927Z,89.60
2018-07-25T21:18:42.204Z,89.30
2018-07-25T21:23:40.442Z,90.00
2018-07-25T21:26:09.815Z,89.80
2018-07-25T21:28:39.119Z,89.90
2018-07-25T21:31:08.466Z,89.70
2018-07-25T21:33:37.762Z,90.10
2018-07-25T21:36:07.094Z,90.40
2018-07-25T21:41:05.235Z,90.60
2018-07-25T21:43:34.561Z,90.30
2018-07-25T21:46:03.973Z,90.60
2018-07-25T21:48:33.280Z,90.60
2018-07-25T21:51:02.601Z,90.70
2018-07-25T21:53:31.934Z,90.60
2018-07-25T21:56:01.248Z,90.80
2018-07-25T21:58:30.522Z,91.10
2018-07-25T22:01:04.992Z,90.70
2018-07-25T22:03:34.289Z,91.50
2018-07-25T22:06:03.677Z,91.40
2018-07-25T22:08:33.094Z,91.60
2018-07-25T22:11:02.436Z,91.40
2018-07-25T22:13:31.781Z,91.80
2018-07-25T22:16:01.427Z,91.90
2018-07-25T22:20:59.645Z,92.40
2018-07-25T22:23:29.244Z,92.20
2018-07-25T22:25:58.808Z,92.50
2018-07-25T22:28:28.382Z,92.40
2018-07-25T22:30:57.932Z,92.10
2018-07-25T22:33:27.287Z,92.40
2018-07-25T22:35:56.598Z,92.10
2018-07-25T22:38:25.936Z,92.00
2018-07-25T22:40:55.268Z,92.20
2018-07-25T22:45:53.486Z,92.50
2018-07-25T22:48:22.868Z,92.70
2018-07-25T22:53:21.243Z,93.10
2018-07-25T22:58:19.943Z,93.00
2018-07-25T23:00:49.570Z,93.20
2018-07-25T23:03:19.093Z,93.00
2018-07-25T23:05:48.651Z,93.30
2018-07-25T23:08:18.000Z,93.40
2018-07-25T23:10:47.314Z,93.60
2018-07-25T23:13:16.621Z,93.80
2018-07-25T23:15:45.939Z,94.30
2018-07-25T23:18:15.296Z,94.20
2018-07-25T23:20:44.598Z,93.90
2018-07-25T23:23:14.204Z,93.90
2018-07-25T23:25:43.781Z,94.10
2018-07-25T23:28:13.324Z,94.00
2018-07-25T23:30:42.903Z,94.20
2018-07-25T23:35:41.313Z,94.80
2018-07-25T23:38:10.664Z,94.60
2018-07-25T23:40:40.020Z,94.40
2018-07-25T23:43:09.372Z,94.70
2018-07-25T23:45:38.804Z,94.90
2018-07-25T23:50:37.436Z,95.20
2018-07-25T23:53:07.032Z,95.20
2018-07-25T23:55:36.592Z,95.10
2018-07-25T23:58:05.915Z,95.30
